Time;durP1;ratioP1;P1;durP2;ratioP2;P2;SDS_P1;SDS_P2;PMS_P1;PMS_P2;Temp;Humidity;BMP_temperature;BMP_pressure;BME280_temperature;BME280_humidity;BME280_pressure;Samples;Min_cycle;Max_cycle;Signal;HPM_P1;HPM_P2
2021/10/03 00:25:01;;;;;;;16.43;9.63;;;;;;;13.00;74.65;100341.55;20768934;82;99914;-86
2021/10/03 00:55:03;;;;;;;17.82;9.88;;;;;;;12.83;74.32;100335.40;20741231;82;100065;-86
2021/10/03 01:25:06;;;;;;;;;;;;;;;12.59;74.33;100315.44;20743020;82;99622;-86
2021/10/03 01:55:07;;;;;;;20.83;11.63;;;;;;;12.34;75.21;100286.23;20758545;83;85350;-86
2021/10/03 02:25:09;;;;;;;17.60;10.53;;;;;;;11.96;76.63;100293.82;20719022;82;100233;-85
2021/10/03 02:55:10;;;;;;;18.77;10.77;;;;;;;11.58;77.18;100270.42;20759734;82;100402;-85
2021/10/03 03:25:13;;;;;;;14.30;9.10;;;;;;;11.48;77.50;100255.20;20738865;82;100478;-87
2021/10/03 03:55:14;;;;;;;15.98;9.53;;;;;;;11.48;77.28;100242.22;20915523;81;100304;-87
2021/10/03 04:25:15;;;;;;;16.53;10.50;;;;;;;11.57;76.59;100242.66;20958513;81;100883;-87
2021/10/03 04:55:16;;;;;;;16.50;10.28;;;;;;;11.70;76.46;100251.38;20986750;81;100170;-85
2021/10/03 05:25:17;;;;;;;18.37;9.43;;;;;;;11.52;76.83;100253.25;20974296;81;103491;-88
2021/10/03 05:55:18;;;;;;;16.17;9.50;;;;;;;11.27;77.15;100228.34;20815180;82;151502;-87
2021/10/03 06:25:19;;;;;;;17.87;10.77;;;;;;;11.21;77.52;100241.48;20753554;83;100011;-88
2021/10/03 06:55:20;;;;;;;16.57;9.10;;;;;;;11.48;77.29;100242.80;20915885;81;100582;-87
2021/10/03 07:25:21;;;;;;;17.57;9.65;;;;;;;11.98;76.50;100266.05;21000597;81;99661;-87
2021/10/03 07:55:28;;;;;;;21.40;9.85;;;;;;;12.55;75.50;100240.72;20805802;82;116471;-85
2021/10/03 08:25:25;;;;;;;16.80;8.33;;;;;;;13.65;73.29;100227.08;20775773;83;100452;-85
2021/10/03 08:55:26;;;;;;;15.05;8.98;;;;;;;15.27;70.46;100207.97;20790373;82;99692;-88
2021/10/03 09:25:44;;;;;;;20.37;8.93;;;;;;;17.91;65.48;100220.49;20777132;82;100447;-85
2021/10/03 09:55:45;;;;;;;18.10;8.55;;;;;;;20.05;60.75;100196.87;20929557;82;100597;-84
2021/10/03 10:25:51;;;;;;;16.10;8.23;;;;;;;23.03;53.51;100164.72;20990646;82;99953;-86
2021/10/03 10:56:21;;;;;;;10.97;6.80;;;;;;;23.88;48.30;100152.60;20801013;82;105282;-88
2021/10/03 11:26:23;;;;;;;14.55;7.83;;;;;;;24.20;47.65;100145.61;20732447;82;100629;-86
2021/10/03 11:56:30;;;;;;;14.25;7.97;;;;;;;23.96;47.48;100125.72;20903118;81;99511;-86
2021/10/03 12:26:49;;;;;;;13.70;7.72;;;;;;;23.42;46.90;100111.81;20959825;81;99835;-86
2021/10/03 12:56:50;;;;;;;12.50;7.77;;;;;;;23.06;47.64;100123.09;21099123;81;101268;-88
2021/10/03 13:26:51;;;;;;;12.90;7.47;;;;;;;22.81;47.84;100100.94;21105356;81;100600;-86
2021/10/03 13:56:52;;;;;;;11.40;7.50;;;;;;;22.25;48.54;100115.95;21147970;81;100634;-88
2021/10/03 14:26:54;;;;;;;12.10;7.90;;;;;;;21.95;49.46;100103.56;21117979;81;100829;-86
2021/10/03 14:56:55;;;;;;;13.20;7.20;;;;;;;21.44;50.19;100114.18;21114962;80;122185;-85
2021/10/03 15:26:56;;;;;;;13.98;7.83;;;;;;;21.01;51.50;100106.59;21131911;79;100578;-85
2021/10/03 15:56:57;;;;;;;14.98;7.95;;;;;;;20.49;52.87;100107.81;21072121;82;1278149;-88
2021/10/03 16:26:58;;;;;;;14.73;8.03;;;;;;;19.87;54.90;100122.63;21065641;81;101571;-86
2021/10/03 16:56:59;;;;;;;15.28;9.03;;;;;;;19.05;57.51;100124.68;21134089;80;1776046;-85
2021/10/03 17:27:00;;;;;;;16.80;9.73;;;;;;;18.10;60.20;100145.87;21176875;81;100688;-87
2021/10/03 17:57:03;;;;;;;13.88;9.35;;;;;;;17.51;62.42;100178.03;21276273;80;100709;-86
2021/10/03 18:27:04;;;;;;;17.37;11.13;;;;;;;16.93;64.42;100171.01;21285612;80;100564;-88
2021/10/03 18:57:06;;;;;;;19.30;10.93;;;;;;;16.42;66.39;100167.37;21220470;81;100769;-84
2021/10/03 19:27:07;;;;;;;20.17;11.50;;;;;;;15.99;67.94;100177.54;21183644;81;101015;-85
2021/10/03 19:57:08;;;;;;;20.20;12.63;;;;;;;15.57;68.98;100187.25;21178407;80;100694;-88
2021/10/03 20:27:09;;;;;;;23.87;14.47;;;;;;;15.26;70.58;100187.62;21189081;81;120657;-88
2021/10/03 20:57:13;;;;;;;24.00;13.65;;;;;;;14.96;71.97;100198.04;20929087;80;100834;-88
2021/10/03 21:27:14;;;;;;;24.50;14.23;;;;;;;14.68;73.22;100191.98;20776087;82;100880;-88
2021/10/03 21:57:15;;;;;;;25.00;14.33;;;;;;;14.25;74.23;100212.32;21059419;81;100777;-88
2021/10/03 22:27:16;;;;;;;22.60;14.20;;;;;;;13.99;75.96;100213.44;21199622;81;100733;-88
2021/10/03 22:57:18;;;;;;;24.92;15.03;;;;;;;13.75;76.53;100226.24;21357470;80;100407;-88
2021/10/03 23:27:18;;;;;;;23.23;14.10;;;;;;;13.57;77.63;100249.02;21458906;80;100695;-88
2021/10/03 23:57:19;;;;;;;28.20;15.13;;;;;;;13.50;78.33;100269.80;21309391;80;100819;-87
